Time;durP1;ratioP1;P1;durP2;ratioP2;P2;SDS_P1;SDS_P2;PMS_P1;PMS_P2;Temp;Humidity;BMP_temperature;BMP_pressure;BME280_temperature;BME280_humidity;BME280_pressure;Samples;Min_cycle;Max_cycle;Signal;HPM_P1;HPM_P2
2023/01/15 00:02:05;;;;;;;0.00;0.00;;;5.90;99.90;;;;;;5100518;28;20526;-90
2023/01/15 00:04:30;;;;;;;0.00;0.00;;;6.00;99.90;;;;;;5102367;28;20054;-90
2023/01/15 00:06:56;;;;;;;0.00;0.00;;;6.00;1.00;;;;;;5102323;28;20119;-90
2023/01/15 00:09:21;;;;;;;2.60;1.05;;;6.00;99.90;;;;;;5100993;28;20052;-90
2023/01/15 00:11:47;;;;;;;0.00;0.00;;;6.00;99.90;;;;;;5101137;28;20044;-90
2023/01/15 00:14:13;;;;;;;0.15;0.15;;;5.90;85.90;;;;;;5102804;28;20048;-90
2023/01/15 00:16:41;;;;;;;0.20;0.20;;;6.80;1.00;;;;;;5102054;28;20514;-90
2023/01/15 00:19:11;;;;;;;0.00;0.00;;;6.00;1.00;;;;;;5101523;28;20062;-90
2023/01/15 00:21:36;;;;;;;0.00;0.00;;;6.00;1.00;;;;;;5101844;28;20048;-90
2023/01/15 00:29:31;;;;;;;0.00;0.00;;;6.00;1.00;;;;;;5101892;28;20040;-91
2023/01/15 00:32:03;;;;;;;0.95;0.93;;;6.00;99.90;;;;;;5100315;28;20062;-90
2023/01/15 00:34:29;;;;;;;18.52;1.70;;;6.10;1.00;;;;;;5100038;28;20050;-90
2023/01/15 00:36:55;;;;;;;0.00;0.00;;;6.10;1.00;;;;;;5101654;28;20105;-90
2023/01/15 00:39:22;;;;;;;0.50;0.47;;;6.10;38.00;;;;;;5100388;28;20040;-90
2023/01/15 00:41:48;;;;;;;0.00;0.00;;;6.00;1.00;;;;;;5101580;28;20118;-90
2023/01/15 00:44:14;;;;;;;0.00;0.00;;;6.00;95.10;;;;;;5100776;28;20102;-90
2023/01/15 00:46:40;;;;;;;0.00;0.00;;;6.00;99.90;;;;;;5102053;28;20051;-90
2023/01/15 00:49:06;;;;;;;0.45;0.45;;;6.40;99.90;;;;;;5100773;28;20048;-90
2023/01/15 00:51:31;;;;;;;0.00;0.00;;;6.00;99.90;;;;;;5101449;28;20036;-90
2023/01/15 00:53:57;;;;;;;0.00;0.00;;;6.10;1.00;;;;;;5100095;28;20048;-90
2023/01/15 00:56:23;;;;;;;0.00;0.00;;;6.10;99.90;;;;;;5100309;28;20051;-90
2023/01/15 00:58:48;;;;;;;1.30;0.60;;;6.00;99.90;;;;;;5101685;28;20040;-90
2023/01/15 01:01:15;;;;;;;0.00;0.00;;;6.80;99.90;;;;;;5100676;28;20044;-90
2023/01/15 01:03:41;;;;;;;2.10;1.48;;;6.00;1.00;;;;;;5100641;28;20040;-90
2023/01/15 01:06:06;;;;;;;0.75;0.70;;;6.10;99.90;;;;;;5099230;28;20104;-90
2023/01/15 01:08:32;;;;;;;0.00;0.00;;;6.00;99.90;;;;;;5100724;28;20395;-90
2023/01/15 01:11:09;;;;;;;0.05;0.05;;;6.20;99.90;;;;;;5102151;28;20123;-90
2023/01/15 01:13:36;;;;;;;0.00;0.00;;;6.20;99.90;;;;;;5103156;28;20066;-90
2023/01/15 01:16:02;;;;;;;1.27;1.02;;;6.30;60.90;;;;;;5102575;28;20043;-90
2023/01/15 01:18:28;;;;;;;0.00;0.00;;;6.20;99.90;;;;;;5103447;28;20128;-90
2023/01/15 01:20:54;;;;;;;0.20;0.20;;;6.30;99.90;;;;;;5103930;28;20386;-90
2023/01/15 01:23:22;;;;;;;3.53;0.98;;;6.30;99.90;;;;;;5102456;28;20047;-90
2023/01/15 01:25:47;;;;;;;0.10;0.10;;;6.30;87.40;;;;;;5101560;28;20522;-90
2023/01/15 01:28:13;;;;;;;0.45;0.45;;;6.30;99.90;;;;;;5102057;28;20040;-90
2023/01/15 01:30:40;;;;;;;0.00;0.00;;;6.30;1.00;;;;;;5102285;28;20039;-90
2023/01/15 01:33:06;;;;;;;0.28;0.28;;;7.60;99.90;;;;;;5101435;28;20044;-90
2023/01/15 01:35:31;;;;;;;0.00;0.00;;;6.20;41.70;;;;;;5102212;28;20040;-90
2023/01/15 01:37:57;;;;;;;0.17;0.15;;;6.20;1.00;;;;;;5103203;28;20089;-90
2023/01/15 01:40:22;;;;;;;0.00;0.00;;;6.20;99.90;;;;;;5103305;28;20395;-90
2023/01/15 01:42:48;;;;;;;0.15;0.15;;;6.30;85.00;;;;;;5101398;28;20042;-90
2023/01/15 01:45:25;;;;;;;0.00;0.00;;;6.30;59.40;;;;;;5104225;28;20044;-90
2023/01/15 01:47:56;;;;;;;0.75;0.65;;;6.30;1.00;;;;;;5101306;28;20044;-91
2023/01/15 01:50:22;;;;;;;0.15;0.15;;;6.20;91.90;;;;;;5100043;28;20526;-90
2023/01/15 01:52:56;;;;;;;0.22;0.22;;;6.20;1.00;;;;;;5100976;28;20040;-90
2023/01/15 01:55:23;;;;;;;0.10;0.10;;;6.20;99.90;;;;;;5101283;28;20111;-90
2023/01/15 01:57:51;;;;;;;0.38;0.20;;;6.70;99.90;;;;;;5100316;28;20129;-91
2023/01/15 02:00:18;;;;;;;0.00;0.00;;;6.10;99.90;;;;;;5101618;28;20161;-91
2023/01/15 02:02:46;;;;;;;0.15;0.15;;;6.10;99.90;;;;;;5100875;28;20414;-90
2023/01/15 02:05:20;;;;;;;0.80;0.20;;;6.10;99.90;;;;;;5100007;28;20103;-90
2023/01/15 02:07:46;;;;;;;0.03;0.03;;;7.20;1.00;;;;;;5100131;28;20040;-90
2023/01/15 02:10:14;;;;;;;0.00;0.00;;;6.20;99.90;;;;;;5102141;28;20097;-91
2023/01/15 02:12:44;;;;;;;0.00;0.00;;;6.30;3.30;;;;;;5101269;28;20520;-91
2023/01/15 02:15:14;;;;;;;0.00;0.00;;;6.30;1.00;;;;;;5100306;28;20040;-90
2023/01/15 02:17:53;;;;;;;0.93;0.88;;;6.30;99.90;;;;;;5100869;28;20114;-91
2023/01/15 02:20:27;;;;;;;1.88;0.95;;;7.10;1.00;;;;;;5101215;28;20078;-90
2023/01/15 02:23:06;;;;;;;0.00;0.00;;;6.40;99.90;;;;;;5099170;28;20048;-90
2023/01/15 02:26:00;;;;;;;0.00;0.00;;;6.30;99.90;;;;;;5100470;28;20048;-91
2023/01/15 02:28:30;;;;;;;0.43;0.43;;;6.20;1.00;;;;;;5101762;28;20097;-90
2023/01/15 02:31:08;;;;;;;0.98;0.98;;;6.20;1.00;;;;;;5100375;28;20044;-90
2023/01/15 02:33:48;;;;;;;0.00;0.00;;;6.20;99.90;;;;;;5101636;28;20048;-91
2023/01/15 02:36:17;;;;;;;0.10;0.10;;;6.10;99.90;;;;;;5101865;28;20044;-91
2023/01/15 02:38:46;;;;;;;0.00;0.00;;;6.20;1.00;;;;;;5101372;28;20249;-91
2023/01/15 02:41:16;;;;;;;0.90;0.90;;;6.20;99.90;;;;;;5101339;28;20043;-91
2023/01/15 02:43:51;;;;;;;0.10;0.10;;;6.30;1.00;;;;;;5100415;28;20040;-91
2023/01/15 02:46:19;;;;;;;0.43;0.43;;;6.40;88.00;;;;;;5101551;28;20079;-88
2023/01/15 02:48:49;;;;;;;0.40;0.40;;;6.50;37.00;;;;;;5100916;28;20047;-88
2023/01/15 02:51:20;;;;;;;0.52;0.52;;;6.40;1.00;;;;;;5101788;28;20043;-88
2023/01/15 02:53:48;;;;;;;0.00;0.00;;;6.40;1.00;;;;;;5100012;28;20043;-88
2023/01/15 02:56:22;;;;;;;0.20;0.20;;;6.40;1.00;;;;;;5102100;28;20044;-88
2023/01/15 02:58:52;;;;;;;0.00;0.00;;;6.40;99.90;;;;;;5100886;28;20044;-91
2023/01/15 03:01:41;;;;;;;0.45;0.45;;;6.30;99.90;;;;;;5099251;28;20047;-91
2023/01/15 03:04:21;;;;;;;0.00;0.00;;;6.40;99.90;;;;;;5100257;28;20036;-91
2023/01/15 03:07:17;;;;;;;0.00;0.00;;;6.40;99.90;;;;;;5100525;28;20070;-90
2023/01/15 03:09:43;;;;;;;0.00;0.00;;;6.40;99.90;;;;;;5100471;28;20080;-91
2023/01/15 03:12:14;;;;;;;0.00;0.00;;;6.40;1.00;;;;;;5100645;28;20119;-88
2023/01/15 03:15:01;;;;;;;0.00;0.00;;;6.30;99.90;;;;;;5100068;28;20036;-89
2023/01/15 03:17:36;;;;;;;0.20;0.20;;;6.30;99.90;;;;;;5101399;28;20059;-88
2023/01/15 03:20:10;;;;;;;0.00;0.00;;;6.20;99.90;;;;;;5100710;28;20123;-89
2023/01/15 03:22:42;;;;;;;0.00;0.00;;;6.30;99.90;;;;;;5100799;28;20379;-89
2023/01/15 03:25:15;;;;;;;2.05;0.22;;;7.50;1.00;;;;;;5101318;28;20048;-89
2023/01/15 03:27:40;;;;;;;0.32;0.32;;;6.20;1.00;;;;;;5101419;28;20063;-89
2023/01/15 03:30:16;;;;;;;0.75;0.75;;;6.10;26.40;;;;;;5101369;28;20044;-88
2023/01/15 03:32:42;;;;;;;0.13;0.13;;;6.10;99.90;;;;;;5101114;28;20043;-89
2023/01/15 03:35:46;;;;;;;0.03;0.03;;;6.10;1.00;;;;;;5099702;28;20039;-89
2023/01/15 03:38:17;;;;;;;0.00;0.00;;;6.00;99.90;;;;;;5099839;28;20430;-89
2023/01/15 03:41:01;;;;;;;5.28;2.17;;;6.10;99.90;;;;;;5100553;28;20054;-89
2023/01/15 03:43:39;;;;;;;0.00;0.00;;;6.10;99.90;;;;;;5100686;28;20036;-89
2023/01/15 03:46:26;;;;;;;0.47;0.47;;;6.10;1.00;;;;;;5100024;28;20047;-89
2023/01/15 03:48:54;;;;;;;0.00;0.00;;;6.10;99.90;;;;;;5098949;28;20051;-89
2023/01/15 03:51:40;;;;;;;1.27;0.80;;;6.20;99.90;;;;;;5098921;28;20079;-88
2023/01/15 03:54:14;;;;;;;0.10;0.10;;;6.20;26.00;;;;;;5099358;28;20044;-89
2023/01/15 03:56:56;;;;;;;0.20;0.20;;;6.30;99.90;;;;;;5099748;28;20419;-89
2023/01/15 03:59:35;;;;;;;0.22;0.22;;;6.30;99.90;;;;;;5099473;28;20040;-89
2023/01/15 04:02:04;;;;;;;3.22;1.20;;;6.20;99.90;;;;;;5099615;28;20044;-89
2023/01/15 04:04:32;;;;;;;3.45;0.50;;;6.30;99.90;;;;;;5099732;28;20044;-89
2023/01/15 04:06:58;;;;;;;0.65;0.52;;;6.20;79.60;;;;;;5100063;28;20044;-89
2023/01/15 04:09:24;;;;;;;0.00;0.00;;;6.10;1.00;;;;;;5098762;28;20044;-89
2023/01/15 04:11:50;;;;;;;0.00;0.00;;;6.20;1.00;;;;;;5098772;28;20036;-88
2023/01/15 04:14:15;;;;;;;0.05;0.05;;;6.20;1.00;;;;;;5099324;28;20070;-88
2023/01/15 04:16:41;;;;;;;1.55;1.20;;;6.10;1.00;;;;;;5100755;28;20040;-88
2023/01/15 04:19:07;;;;;;;0.10;0.10;;;6.10;99.90;;;;;;5098450;28;20058;-89
2023/01/15 04:21:32;;;;;;;0.70;0.40;;;6.10;99.90;;;;;;5099551;28;20051;-89
2023/01/15 04:23:58;;;;;;;7.32;1.00;;;6.10;97.10;;;;;;5098948;28;20036;-89
2023/01/15 04:26:24;;;;;;;0.00;0.00;;;6.10;18.00;;;;;;5100077;28;20055;-89
2023/01/15 04:28:49;;;;;;;0.00;0.00;;;6.00;1.00;;;;;;5097706;28;20067;-89
2023/01/15 04:31:15;;;;;;;2.53;1.55;;;6.00;99.90;;;;;;5097677;28;20040;-89
2023/01/15 04:33:41;;;;;;;0.00;0.00;;;6.00;94.90;;;;;;5099419;28;20040;-89
2023/01/15 04:36:07;;;;;;;0.10;0.10;;;6.00;99.90;;;;;;5100092;28;20051;-89
2023/01/15 04:38:34;;;;;;;1.65;0.25;;;6.00;99.90;;;;;;5100789;28;20059;-89
2023/01/15 04:46:29;;;;;;;0.10;0.10;;;5.80;99.90;;;;;;5103606;28;20040;-89
2023/01/15 04:48:55;;;;;;;0.10;0.10;;;5.80;99.90;;;;;;5104296;28;20045;-89
2023/01/15 04:51:20;;;;;;;0.00;0.00;;;5.90;99.90;;;;;;5103856;28;20406;-89
2023/01/15 04:53:46;;;;;;;0.93;0.88;;;5.90;99.90;;;;;;5103831;28;20496;-89
2023/01/15 04:56:12;;;;;;;0.00;0.00;;;5.80;94.50;;;;;;5101320;28;20051;-89
2023/01/15 04:58:37;;;;;;;0.10;0.10;;;5.80;1.00;;;;;;5103101;28;20063;-89
2023/01/15 05:01:13;;;;;;;0.00;0.00;;;5.70;1.00;;;;;;5103240;28;20059;-89
2023/01/15 05:03:39;;;;;;;1.98;1.58;;;5.80;99.90;;;;;;5108572;28;20028;-89
2023/01/15 05:06:05;;;;;;;0.00;0.00;;;6.80;1.00;;;;;;5121112;28;20022;-89
2023/01/15 05:08:31;;;;;;;0.00;0.00;;;5.80;1.90;;;;;;5116111;28;20095;-89
2023/01/15 05:11:01;;;;;;;0.03;0.03;;;5.80;32.60;;;;;;5101177;28;20164;-89
2023/01/15 05:13:27;;;;;;;0.13;0.13;;;5.80;99.90;;;;;;5101907;28;20509;-89
2023/01/15 05:15:52;;;;;;;1.85;0.80;;;5.80;99.90;;;;;;5101845;28;20060;-88
2023/01/15 05:18:18;;;;;;;4.38;0.98;;;5.70;99.90;;;;;;5100951;28;20471;-89
2023/01/15 05:20:43;;;;;;;0.10;0.10;;;5.70;1.00;;;;;;5099079;28;20148;-89
2023/01/15 05:23:09;;;;;;;0.00;0.00;;;5.70;99.90;;;;;;5100772;28;20040;-89
2023/01/15 05:25:38;;;;;;;0.00;0.00;;;5.60;99.90;;;;;;5101219;28;20479;-89
2023/01/15 05:28:03;;;;;;;0.10;0.10;;;5.60;28.80;;;;;;5099902;28;20044;-89
2023/01/15 05:30:29;;;;;;;0.00;0.00;;;5.60;99.90;;;;;;5101743;28;20089;-89
2023/01/15 05:32:55;;;;;;;0.00;0.00;;;6.60;70.40;;;;;;5100872;28;20048;-89
2023/01/15 05:35:20;;;;;;;0.20;0.20;;;5.50;40.20;;;;;;5100574;28;20040;-88
2023/01/15 05:37:46;;;;;;;0.00;0.00;;;5.50;99.90;;;;;;5101397;28;20052;-89
2023/01/15 05:40:12;;;;;;;0.75;0.45;;;5.50;99.90;;;;;;5101880;28;20032;-89
2023/01/15 05:42:37;;;;;;;0.43;0.32;;;5.50;99.90;;;;;;5101496;28;20074;-89
2023/01/15 05:45:03;;;;;;;0.00;0.00;;;5.40;99.90;;;;;;5101684;28;20051;-89
2023/01/15 05:47:29;;;;;;;0.00;0.00;;;5.50;99.90;;;;;;5100387;28;20051;-89
2023/01/15 05:49:54;;;;;;;0.00;0.00;;;5.40;99.90;;;;;;5101496;28;20051;-89
2023/01/15 05:52:20;;;;;;;0.00;0.00;;;5.40;99.90;;;;;;5101723;28;20487;-88
2023/01/15 05:54:48;;;;;;;0.00;0.00;;;5.50;99.90;;;;;;5101579;28;20071;-89
2023/01/15 05:57:14;;;;;;;0.00;0.00;;;5.40;64.40;;;;;;5100938;28;20040;-89
2023/01/15 05:59:39;;;;;;;0.77;0.57;;;5.40;99.90;;;;;;5101443;28;20444;-89
2023/01/15 06:02:05;;;;;;;0.15;0.15;;;5.40;99.90;;;;;;5101343;28;20052;-89
2023/01/15 06:04:31;;;;;;;0.00;0.00;;;5.40;1.00;;;;;;5101532;28;20048;-88
2023/01/15 06:06:57;;;;;;;0.10;0.10;;;5.40;99.90;;;;;;5101329;28;20043;-89
2023/01/15 06:09:24;;;;;;;0.40;0.40;;;5.40;99.90;;;;;;5101293;28;20395;-89
2023/01/15 06:11:50;;;;;;;0.95;0.52;;;5.40;99.90;;;;;;5102364;28;20503;-89
2023/01/15 06:14:16;;;;;;;0.00;0.00;;;5.50;99.90;;;;;;5102018;28;20522;-89
2023/01/15 06:16:41;;;;;;;0.00;0.00;;;5.40;99.90;;;;;;5102471;28;20036;-88
2023/01/15 06:19:08;;;;;;;7.25;0.85;;;5.30;99.90;;;;;;5102127;28;20040;-89
2023/01/15 06:21:35;;;;;;;0.00;0.00;;;5.20;1.00;;;;;;5101377;28;20047;-88
2023/01/15 06:24:00;;;;;;;0.10;0.10;;;5.20;1.00;;;;;;5102119;28;20178;-88
2023/01/15 06:26:27;;;;;;;0.10;0.10;;;5.20;20.40;;;;;;5100616;28;20067;-89
2023/01/15 06:28:52;;;;;;;0.20;0.20;;;5.20;89.10;;;;;;5101794;28;20060;-88
2023/01/15 06:31:20;;;;;;;0.00;0.00;;;6.40;99.90;;;;;;5099056;28;20036;-88
2023/01/15 06:33:46;;;;;;;0.55;0.55;;;5.20;1.00;;;;;;5099782;28;20371;-88
2023/01/15 06:36:15;;;;;;;0.00;0.00;;;5.20;1.00;;;;;;5100840;28;20040;-88
2023/01/15 06:38:41;;;;;;;0.20;0.20;;;5.10;44.60;;;;;;5102374;28;20036;-89
2023/01/15 06:49:28;;;;;;;0.00;0.00;;;5.00;99.90;;;;;;5100156;28;20074;-89
2023/01/15 06:51:54;;;;;;;0.10;0.10;;;5.00;99.90;;;;;;5098339;28;20406;-89
2023/01/15 06:54:20;;;;;;;0.00;0.00;;;4.90;99.90;;;;;;5099180;28;20044;-88
2023/01/15 06:56:45;;;;;;;0.40;0.40;;;4.90;99.90;;;;;;5098253;28;20095;-88
2023/01/15 06:59:11;;;;;;;15.93;2.13;;;4.90;99.90;;;;;;5099003;28;20096;-88
2023/01/15 07:01:37;;;;;;;1.17;1.13;;;4.90;99.90;;;;;;5099874;28;20040;-88
2023/01/15 07:04:03;;;;;;;0.00;0.00;;;4.90;99.90;;;;;;5097436;28;20100;-89
2023/01/15 07:06:28;;;;;;;0.00;0.00;;;4.80;99.90;;;;;;5097771;28;20081;-88
2023/01/15 07:08:54;;;;;;;0.47;0.35;;;4.80;99.90;;;;;;5098008;28;20391;-88
2023/01/15 07:11:20;;;;;;;0.00;0.00;;;4.90;89.90;;;;;;5098425;28;20079;-89
2023/01/15 07:13:45;;;;;;;0.10;0.10;;;4.80;99.90;;;;;;5097411;28;20048;-88
2023/01/15 07:16:26;;;;;;;0.00;0.00;;;4.70;1.00;;;;;;5097892;28;20040;-89
2023/01/15 07:18:54;;;;;;;0.00;0.00;;;4.80;99.90;;;;;;5098266;28;20048;-88
2023/01/15 07:21:19;;;;;;;0.08;0.08;;;4.80;94.50;;;;;;5097940;28;20051;-88
2023/01/15 07:23:45;;;;;;;0.00;0.00;;;4.80;1.00;;;;;;5098645;28;20036;-88
2023/01/15 07:26:10;;;;;;;0.00;0.00;;;5.00;99.90;;;;;;5097980;28;20051;-88
2023/01/15 07:28:36;;;;;;;0.00;0.00;;;5.00;1.00;;;;;;5098784;28;20071;-88
2023/01/15 07:31:01;;;;;;;0.52;0.52;;;4.90;1.00;;;;;;5098803;28;20043;-88
2023/01/15 07:33:27;;;;;;;0.10;0.10;;;4.90;99.90;;;;;;5098346;28;20111;-89
2023/01/15 07:35:53;;;;;;;0.00;0.00;;;5.30;99.90;;;;;;5097855;28;20066;-88
2023/01/15 07:38:18;;;;;;;0.00;0.00;;;5.00;14.50;;;;;;5097474;28;20040;-89
2023/01/15 07:49:43;;;;;;;0.90;0.75;;;5.00;1.00;;;;;;5096293;28;20458;-88
2023/01/15 07:51:42;;;;;;;0.70;0.63;;;5.20;99.90;;;;;;5093643;28;20039;-88
2023/01/15 07:54:08;;;;;;;0.00;0.00;;;5.20;99.90;;;;;;5093974;28;20043;-88
2023/01/15 07:56:33;;;;;;;0.13;0.13;;;5.20;1.00;;;;;;5093367;28;20572;-88
2023/01/15 07:58:59;;;;;;;0.00;0.00;;;5.10;1.00;;;;;;5092328;28;20041;-88
2023/01/15 08:01:24;;;;;;;0.00;0.00;;;5.10;99.90;;;;;;5090525;28;20449;-89
2023/01/15 08:03:50;;;;;;;2.58;2.05;;;5.00;99.90;;;;;;5092095;28;20062;-88
2023/01/15 08:06:15;;;;;;;0.00;0.00;;;5.00;99.90;;;;;;5091927;28;20044;-88
2023/01/15 08:08:41;;;;;;;0.00;0.00;;;5.10;99.90;;;;;;5091648;28;20040;-88
2023/01/15 08:16:35;;;;;;;0.10;0.10;;;5.30;99.90;;;;;;5090979;28;20109;-88
2023/01/15 08:19:01;;;;;;;0.00;0.00;;;5.20;99.90;;;;;;5091172;28;20044;-88
2023/01/15 08:21:27;;;;;;;17.95;1.42;;;5.20;99.90;;;;;;5090070;28;20539;-88
2023/01/15 08:23:53;;;;;;;0.63;0.63;;;5.30;99.90;;;;;;5090285;28;20048;-88
2023/01/15 08:26:18;;;;;;;0.10;0.10;;;5.20;99.90;;;;;;5072828;28;20066;-88
2023/01/15 08:28:44;;;;;;;0.52;0.52;;;5.30;99.90;;;;;;5091629;28;20114;-87
2023/01/15 08:31:10;;;;;;;1.27;0.90;;;5.50;99.90;;;;;;5083487;28;20033;-87
2023/01/15 08:33:35;;;;;;;0.65;0.43;;;5.70;99.90;;;;;;5090940;28;20046;-88
2023/01/15 08:36:01;;;;;;;0.00;0.00;;;5.90;60.10;;;;;;5082946;28;20146;-87
2023/01/15 08:38:27;;;;;;;0.00;0.00;;;6.30;51.60;;;;;;5090943;28;20109;-88
2023/01/15 08:40:59;;;;;;;0.00;0.00;;;6.40;4.50;;;;;;5090810;28;20048;-88
2023/01/15 08:43:29;;;;;;;0.20;0.20;;;6.40;1.00;;;;;;5090810;28;20495;-88
2023/01/15 08:45:57;;;;;;;0.10;0.10;;;6.40;1.00;;;;;;5090524;28;20044;-88
2023/01/15 08:48:23;;;;;;;0.00;0.00;;;6.20;1.00;;;;;;5081083;28;20078;-87
2023/01/15 08:50:49;;;;;;;1.02;0.90;;;6.00;99.90;;;;;;5077992;28;20076;-88
2023/01/15 08:53:15;;;;;;;0.30;0.30;;;5.70;18.30;;;;;;5076967;28;20044;-88
2023/01/15 08:55:41;;;;;;;0.00;0.00;;;5.30;99.90;;;;;;5083662;28;20403;-88
2023/01/15 08:58:06;;;;;;;0.00;0.00;;;5.00;1.00;;;;;;5091365;28;20040;-88
2023/01/15 09:00:33;;;;;;;0.70;0.52;;;4.70;99.90;;;;;;5090064;28;20050;-88
2023/01/15 09:02:58;;;;;;;0.00;0.00;;;4.60;1.00;;;;;;5091048;28;20044;-88
2023/01/15 09:05:26;;;;;;;0.40;0.40;;;4.50;1.00;;;;;;5079196;28;20507;-88
2023/01/15 09:07:52;;;;;;;0.20;0.20;;;4.60;99.90;;;;;;5091135;28;20594;-88
2023/01/15 09:10:18;;;;;;;0.00;0.00;;;4.60;99.90;;;;;;5091906;28;20146;-89
2023/01/15 09:12:44;;;;;;;0.00;0.00;;;4.50;1.00;;;;;;5091257;28;20327;-88
2023/01/15 09:15:09;;;;;;;0.00;0.00;;;4.40;99.90;;;;;;5091481;28;20395;-88
2023/01/15 09:17:39;;;;;;;0.00;0.00;;;4.50;99.90;;;;;;5091850;28;20118;-89
2023/01/15 09:20:06;;;;;;;0.00;0.00;;;4.50;99.90;;;;;;5091397;28;20052;-88
2023/01/15 09:22:32;;;;;;;0.43;0.43;;;4.50;99.90;;;;;;5090928;28;20480;-88
2023/01/15 09:24:58;;;;;;;0.00;0.00;;;4.30;99.90;;;;;;5090769;28;20055;-88
2023/01/15 09:27:24;;;;;;;0.52;0.50;;;4.30;1.00;;;;;;5091011;28;20384;-88
2023/01/15 09:29:50;;;;;;;0.32;0.32;;;4.30;5.70;;;;;;5089915;28;20101;-89
2023/01/15 09:32:15;;;;;;;0.80;0.73;;;4.40;79.90;;;;;;5092678;28;20390;-88
2023/01/15 09:34:41;;;;;;;0.30;0.30;;;4.30;99.90;;;;;;5094666;28;20043;-88
2023/01/15 09:37:06;;;;;;;4.30;1.75;;;4.30;99.90;;;;;;5094578;28;20758;-88
2023/01/15 09:39:32;;;;;;;1.10;0.80;;;4.10;99.90;;;;;;5094345;28;20040;-88
2023/01/15 09:42:07;;;;;;;0.08;0.08;;;4.10;99.90;;;;;;5094548;28;20066;-88
2023/01/15 09:44:48;;;;;;;0.00;0.00;;;4.20;99.90;;;;;;5094554;28;20044;-88
2023/01/15 09:47:17;;;;;;;0.10;0.10;;;4.20;99.90;;;;;;5079311;28;20105;-88
2023/01/15 09:50:08;;;;;;;0.93;0.93;;;4.30;99.90;;;;;;5075857;28;20052;-88
2023/01/15 09:52:49;;;;;;;0.13;0.13;;;4.30;99.90;;;;;;5094147;28;20074;-88
2023/01/15 09:55:20;;;;;;;0.00;0.00;;;4.70;99.90;;;;;;5094341;28;20055;-89
2023/01/15 09:57:50;;;;;;;0.00;0.00;;;4.60;99.90;;;;;;5092654;28;20055;-89
2023/01/15 10:00:20;;;;;;;1.35;1.02;;;4.80;99.90;;;;;;5094539;28;20388;-88
2023/01/15 10:02:49;;;;;;;0.00;0.00;;;4.70;99.90;;;;;;5093802;28;20545;-88
2023/01/15 10:05:35;;;;;;;1.40;0.98;;;4.70;99.90;;;;;;5084691;28;20044;-89
2023/01/15 10:08:12;;;;;;;0.00;0.00;;;4.70;99.90;;;;;;5085965;28;20040;-89
2023/01/15 10:10:45;;;;;;;5.15;1.77;;;4.60;99.90;;;;;;5093772;28;20059;-89
2023/01/15 10:13:27;;;;;;;4.85;1.30;;;4.60;99.90;;;;;;5073900;28;20547;-89
2023/01/15 10:15:54;;;;;;;0.75;0.45;;;4.70;99.90;;;;;;5083277;28;20036;-88
2023/01/15 10:18:22;;;;;;;0.00;0.00;;;4.90;93.30;;;;;;5093848;28;20051;-88
2023/01/15 10:21:06;;;;;;;1.55;0.75;;;5.00;98.60;;;;;;5093736;28;20115;-88
2023/01/15 10:23:56;;;;;;;0.63;0.52;;;5.10;99.90;;;;;;5093750;28;20486;-88
2023/01/15 10:26:57;;;;;;;0.00;0.00;;;5.30;1.00;;;;;;5093909;28;20084;-89
2023/01/15 10:29:41;;;;;;;1.20;1.10;;;5.40;99.90;;;;;;5083129;28;20510;-88
2023/01/15 10:32:06;;;;;;;0.00;0.00;;;5.50;99.90;;;;;;5091875;28;20031;-88
2023/01/15 10:35:07;;;;;;;0.45;0.45;;;5.50;99.90;;;;;;5093206;28;20120;-88
2023/01/15 10:37:33;;;;;;;0.00;0.00;;;5.40;1.00;;;;;;5093239;28;20489;-88
2023/01/15 10:40:13;;;;;;;0.43;0.43;;;5.40;99.90;;;;;;5093666;28;20059;-88
2023/01/15 10:42:45;;;;;;;0.30;0.30;;;5.40;99.90;;;;;;5093368;28;20051;-88
2023/01/15 10:45:24;;;;;;;0.00;0.00;;;5.50;99.90;;;;;;5092602;28;20044;-88
2023/01/15 10:47:58;;;;;;;7.30;1.65;;;5.60;99.90;;;;;;5091998;28;20054;-88
2023/01/15 10:50:26;;;;;;;0.00;0.00;;;5.90;1.00;;;;;;5092961;28;20044;-88
2023/01/15 10:53:35;;;;;;;1.38;1.00;;;6.10;1.00;;;;;;5092690;28;20048;-88
2023/01/15 10:56:26;;;;;;;1.02;0.32;;;6.10;1.00;;;;;;5060037;28;20056;-88
2023/01/15 10:59:14;;;;;;;0.00;0.00;;;6.10;99.90;;;;;;5092987;28;20048;-88
2023/01/15 11:01:40;;;;;;;0.00;0.00;;;6.00;99.90;;;;;;5080962;28;20059;-88
2023/01/15 11:04:12;;;;;;;0.00;0.00;;;6.80;99.90;;;;;;5092905;28;20107;-88
2023/01/15 11:06:38;;;;;;;0.30;0.30;;;5.90;1.00;;;;;;5092860;28;20075;-88
2023/01/15 11:09:04;;;;;;;0.00;0.00;;;5.90;1.00;;;;;;5092435;28;20075;-88
2023/01/15 11:20:33;;;;;;;0.00;0.00;;;5.60;99.90;;;;;;5115489;27;20080;-88
2023/01/15 11:23:33;;;;;;;1.20;1.10;;;5.60;99.90;;;;;;5092129;28;20050;-88
2023/01/15 11:25:59;;;;;;;0.00;0.00;;;5.60;99.90;;;;;;5087888;28;20067;-87
2023/01/15 11:28:45;;;;;;;0.00;0.00;;;5.80;99.90;;;;;;5091983;28;20663;-87
2023/01/15 11:31:13;;;;;;;0.47;0.47;;;5.90;99.90;;;;;;5091681;28;20040;-88
2023/01/15 11:33:57;;;;;;;0.00;0.00;;;6.00;99.90;;;;;;5091700;28;20089;-88
2023/01/15 11:36:25;;;;;;;1.13;1.13;;;6.10;99.90;;;;;;5086662;28;20109;-87
2023/01/15 11:38:51;;;;;;;1.77;1.65;;;6.10;99.90;;;;;;5092304;28;20467;-88
2023/01/15 11:41:22;;;;;;;1.08;0.85;;;6.10;99.90;;;;;;5091919;28;20039;-88
2023/01/15 11:52:19;;;;;;;1.98;1.55;;;7.00;99.90;;;;;;5074461;28;20052;-88
2023/01/15 11:54:48;;;;;;;0.00;0.00;;;7.10;99.90;;;;;;5091903;28;20040;-88
2023/01/15 11:57:30;;;;;;;1.13;0.68;;;7.00;1.00;;;;;;5091535;28;20040;-88
2023/01/15 11:59:57;;;;;;;0.00;0.00;;;6.80;99.90;;;;;;5093631;28;20071;-88
2023/01/15 12:02:35;;;;;;;0.00;0.00;;;6.90;99.90;;;;;;5093440;28;20036;-88
2023/01/15 12:05:03;;;;;;;5.57;1.60;;;7.10;1.00;;;;;;5092685;28;20110;-87
2023/01/15 12:07:29;;;;;;;0.10;0.10;;;7.20;1.00;;;;;;5092224;28;20036;-88
2023/01/15 12:10:01;;;;;;;0.00;0.00;;;7.40;81.60;;;;;;5091494;28;20048;-88
2023/01/15 12:13:05;;;;;;;2.63;0.65;;;7.40;1.00;;;;;;5091782;28;20048;-88
2023/01/15 12:15:33;;;;;;;0.38;0.38;;;7.20;99.90;;;;;;5090972;28;20097;-88
2023/01/15 12:18:09;;;;;;;0.63;0.63;;;6.90;23.30;;;;;;5091172;28;20518;-88
2023/01/15 12:21:01;;;;;;;0.00;0.00;;;6.80;1.00;;;;;;5092003;28;20040;-88
2023/01/15 12:24:02;;;;;;;0.60;0.60;;;6.90;7.70;;;;;;5116479;28;20274;-88
2023/01/15 12:26:31;;;;;;;0.43;0.43;;;7.00;1.00;;;;;;5102277;28;20461;-88
2023/01/15 12:29:04;;;;;;;1.02;0.90;;;7.40;99.90;;;;;;5094702;28;20036;-88
2023/01/15 12:31:37;;;;;;;0.35;0.30;;;7.70;76.40;;;;;;5093875;28;20051;-88
2023/01/15 12:34:11;;;;;;;1.27;0.52;;;7.80;1.00;;;;;;5093459;28;20458;-88
2023/01/15 12:36:46;;;;;;;10.20;0.95;;;7.90;99.90;;;;;;5093228;28;20079;-87
2023/01/15 12:39:33;;;;;;;0.00;0.00;;;7.90;99.90;;;;;;5093477;28;20427;-87
2023/01/15 12:45:07;;;;;;;0.13;0.13;;;7.70;99.90;;;;;;5083689;28;20044;-88
2023/01/15 12:47:47;;;;;;;0.80;0.63;;;7.50;1.00;;;;;;5093362;28;20075;-88
2023/01/15 12:50:35;;;;;;;0.00;0.00;;;7.40;1.00;;;;;;5092951;28;20491;-88
2023/01/15 12:53:19;;;;;;;0.00;0.00;;;7.50;99.90;;;;;;5093104;28;20493;-88
2023/01/15 12:55:56;;;;;;;0.00;0.00;;;7.40;99.90;;;;;;5093246;28;20149;-88
2023/01/15 12:58:45;;;;;;;3.90;2.47;;;7.30;99.90;;;;;;5092225;28;20522;-88
2023/01/15 13:01:35;;;;;;;0.00;0.00;;;7.20;99.70;;;;;;5091972;28;20044;-89
2023/01/15 13:04:21;;;;;;;7.28;0.65;;;6.90;2.60;;;;;;5092011;28;20054;-89
2023/01/15 13:06:56;;;;;;;1.02;0.98;;;6.70;99.90;;;;;;5094060;28;20044;-88
2023/01/15 13:09:46;;;;;;;0.65;0.57;;;6.60;99.90;;;;;;5097557;28;20044;-88
2023/01/15 13:12:16;;;;;;;1.27;1.08;;;6.40;46.90;;;;;;5097427;28;20083;-88
2023/01/15 13:14:42;;;;;;;1.27;0.53;;;6.40;94.50;;;;;;5096933;28;20044;-88
2023/01/15 13:17:22;;;;;;;0.65;0.65;;;6.20;99.90;;;;;;5096981;28;20515;-88
2023/01/15 13:20:00;;;;;;;0.00;0.00;;;6.10;68.70;;;;;;5096820;28;20054;-88
2023/01/15 13:22:29;;;;;;;0.98;0.38;;;5.80;99.90;;;;;;5097031;28;20087;-89
2023/01/15 13:25:11;;;;;;;0.00;0.00;;;5.50;99.90;;;;;;5095501;28;20059;-90
2023/01/15 13:27:53;;;;;;;2.08;1.75;;;5.20;99.90;;;;;;5096959;28;20040;-89
2023/01/15 13:30:37;;;;;;;0.30;0.30;;;5.00;99.90;;;;;;5096762;28;20075;-90
2023/01/15 13:33:34;;;;;;;0.00;0.00;;;5.00;99.90;;;;;;5096659;28;20051;-89
2023/01/15 13:36:15;;;;;;;5.38;1.20;;;5.00;99.90;;;;;;5095349;28;20126;-90
2023/01/15 13:38:44;;;;;;;0.00;0.00;;;4.90;99.90;;;;;;5095455;28;20487;-90
2023/01/15 13:42:30;;;;;;;0.10;0.10;;;5.00;99.90;;;;;;5096466;28;20121;-89
2023/01/15 13:44:04;;;;;;;0.00;0.00;;;4.90;99.90;;;;;;5095266;28;20056;-89
2023/01/15 13:46:30;;;;;;;0.00;0.00;;;4.90;99.90;;;;;;5096772;28;20119;-89
2023/01/15 13:48:56;;;;;;;0.75;0.75;;;4.90;99.90;;;;;;5096131;28;20075;-88
2023/01/15 13:51:28;;;;;;;0.00;0.00;;;5.00;99.90;;;;;;5096536;28;20042;-89
2023/01/15 13:53:56;;;;;;;0.10;0.10;;;4.90;99.90;;;;;;5096493;28;20048;-89
2023/01/15 13:56:34;;;;;;;0.00;0.00;;;5.00;99.90;;;;;;5095863;28;20487;-89
2023/01/15 13:59:04;;;;;;;0.00;0.00;;;4.90;99.90;;;;;;5096565;28;20046;-89
2023/01/15 14:01:29;;;;;;;0.00;0.00;;;5.00;99.90;;;;;;5096054;28;20044;-89
2023/01/15 14:04:03;;;;;;;0.00;0.00;;;5.00;99.90;;;;;;5094624;28;20055;-89
2023/01/15 14:06:39;;;;;;;0.00;0.00;;;5.00;99.90;;;;;;5094600;28;20097;-89
2023/01/15 14:09:09;;;;;;;0.20;0.20;;;5.00;99.90;;;;;;5096159;28;20044;-89
2023/01/15 14:11:39;;;;;;;0.43;0.43;;;5.00;99.90;;;;;;5094801;28;20048;-89
2023/01/15 14:14:33;;;;;;;0.00;0.00;;;5.00;99.90;;;;;;5096613;28;20048;-90